createdAt,value
2019-02-06T00:00:53.014Z,100168.17
2019-02-06T00:03:23.758Z,100149.91
2019-02-06T00:05:54.502Z,100152.70
2019-02-06T00:08:25.107Z,100140.45
2019-02-06T00:10:55.842Z,100135.51
2019-02-06T00:13:26.323Z,100128.83
2019-02-06T00:15:56.972Z,100136.82
2019-02-06T00:18:28.023Z,100141.00
2019-02-06T00:20:58.481Z,100136.94
2019-02-06T00:23:28.982Z,100135.89
2019-02-06T00:25:59.478Z,100139.73
2019-02-06T00:28:30.073Z,100142.33
2019-02-06T00:31:00.532Z,100147.98
2019-02-06T00:33:31.003Z,100147.55
2019-02-06T00:36:01.522Z,100150.88
2019-02-06T00:38:31.982Z,100149.13
2019-02-06T00:41:02.587Z,100142.25
2019-02-06T00:43:33.192Z,100143.20
2019-02-06T00:46:03.978Z,100132.79
2019-02-06T00:48:34.477Z,100121.58
2019-02-06T00:51:04.994Z,100126.59
2019-02-06T00:53:35.572Z,100119.94
2019-02-06T00:56:06.462Z,100127.64
2019-02-06T00:58:36.925Z,100128.26
2019-02-06T01:01:07.950Z,99965.40
2019-02-06T01:03:38.635Z,100110.08
2019-02-06T01:06:09.385Z,100103.11
2019-02-06T01:08:40.045Z,100120.56
2019-02-06T01:11:10.509Z,100138.52
2019-02-06T01:13:40.983Z,100129.25
2019-02-06T01:16:11.503Z,100131.55
2019-02-06T01:18:41.956Z,100129.47
2019-02-06T01:21:12.425Z,100136.11
2019-02-06T01:23:43.409Z,100133.70
2019-02-06T01:26:13.964Z,100125.31
2019-02-06T01:28:44.483Z,100095.21
2019-02-06T01:31:18.297Z,100074.26
2019-02-06T01:33:48.798Z,100077.59
2019-02-06T01:36:19.262Z,100090.22
2019-02-06T01:38:49.727Z,100101.34
2019-02-06T01:41:20.185Z,100092.55
2019-02-06T01:43:50.687Z,100080.09
2019-02-06T01:46:21.185Z,100061.28
2019-02-06T01:48:51.693Z,100053.70
2019-02-06T01:51:22.170Z,100060.77
2019-02-06T01:53:52.884Z,100059.66
2019-02-06T01:56:23.333Z,100059.33
2019-02-06T01:58:53.843Z,100051.44
2019-02-06T02:01:24.350Z,100055.98
2019-02-06T02:03:54.906Z,100052.49
2019-02-06T02:06:25.688Z,100053.20
2019-02-06T02:09:00.257Z,100051.84
2019-02-06T02:11:30.757Z,100059.95
2019-02-06T02:14:01.220Z,100063.66
2019-02-06T02:16:31.821Z,100060.56
2019-02-06T02:19:02.670Z,100047.70
2019-02-06T02:21:33.275Z,100042.92
2019-02-06T02:24:03.874Z,100047.26
2019-02-06T02:26:34.442Z,100043.41
2019-02-06T02:29:05.362Z,100038.34
2019-02-06T02:31:36.181Z,100023.17
2019-02-06T02:34:06.628Z,100028.08
2019-02-06T02:36:37.090Z,100008.56
2019-02-06T02:39:09.046Z,99986.61
2019-02-06T02:41:39.543Z,99992.75
2019-02-06T02:44:10.105Z,100000.00
2019-02-06T02:46:40.781Z,100007.16
2019-02-06T02:49:11.276Z,100003.64
2019-02-06T02:51:44.215Z,100011.72
2019-02-06T02:54:13.979Z,100001.95
2019-02-06T02:56:44.537Z,100003.19
2019-02-06T02:59:15.314Z,100006.84
2019-02-06T03:01:58.896Z,100003.91
2019-02-06T03:04:36.465Z,100013.05
2019-02-06T03:07:07.071Z,100011.70
2019-02-06T03:09:37.843Z,100007.03
2019-02-06T03:12:08.455Z,100005.69
2019-02-06T03:14:38.920Z,100004.02
2019-02-06T03:17:09.435Z,99981.20
2019-02-06T03:19:39.923Z,99978.53
2019-02-06T03:22:10.488Z,99984.36
2019-02-06T03:24:41.000Z,99989.42
2019-02-06T03:27:11.461Z,99978.02
2019-02-06T03:29:41.961Z,99981.87
2019-02-06T03:32:12.423Z,99990.25
2019-02-06T03:34:42.926Z,99986.83
2019-02-06T03:37:13.661Z,99987.05
2019-02-06T03:39:44.105Z,99987.34
2019-02-06T03:42:14.556Z,99985.80
2019-02-06T03:44:45.068Z,99986.62
2019-02-06T03:47:15.523Z,99995.03
2019-02-06T03:49:46.092Z,99988.79
2019-02-06T03:52:16.765Z,99996.38
2019-02-06T03:54:47.234Z,99995.03
2019-02-06T03:57:17.737Z,99979.05
2019-02-06T03:59:48.249Z,99971.16
2019-02-06T04:02:18.691Z,99962.78
2019-02-06T04:04:49.254Z,99953.75
2019-02-06T04:07:19.754Z,99964.73
2019-02-06T04:09:50.212Z,99980.91
2019-02-06T04:12:20.721Z,99985.48
2019-02-06T04:14:51.224Z,99987.36
2019-02-06T04:17:21.700Z,99979.47
2019-02-06T04:19:52.459Z,99993.18
2019-02-06T04:22:22.934Z,100003.23
2019-02-06T04:24:53.436Z,100002.48
2019-02-06T04:27:23.905Z,99998.77
2019-02-06T04:29:54.919Z,99992.33
2019-02-06T04:32:25.427Z,99987.66
2019-02-06T04:34:55.880Z,99993.38
2019-02-06T04:37:26.371Z,99989.34
2019-02-06T04:39:56.844Z,99994.73
2019-02-06T04:42:27.365Z,99996.38
2019-02-06T04:44:57.821Z,99996.17
2019-02-06T04:47:28.494Z,100005.08
2019-02-06T04:49:59.054Z,100027.18
2019-02-06T04:52:29.526Z,100029.16
2019-02-06T04:55:00.001Z,100032.67
2019-02-06T04:57:30.537Z,99916.03
2019-02-06T05:00:01.004Z,100039.31
2019-02-06T05:02:31.516Z,100036.09
2019-02-06T05:05:01.998Z,100038.06
2019-02-06T05:07:32.489Z,100037.23
2019-02-06T05:10:02.964Z,100034.13
2019-02-06T05:12:33.481Z,100042.83
2019-02-06T05:15:04.601Z,100057.47
2019-02-06T05:17:35.104Z,100055.59
2019-02-06T05:20:10.576Z,100055.30
2019-02-06T05:22:41.076Z,100064.41
2019-02-06T05:25:11.730Z,100065.75
2019-02-06T05:27:42.230Z,100078.94
2019-02-06T05:30:12.977Z,100091.99
2019-02-06T05:32:43.486Z,100085.45
2019-02-06T05:35:14.059Z,100089.92
2019-02-06T05:37:44.627Z,100094.89
2019-02-06T05:40:15.346Z,100096.86
2019-02-06T05:42:46.255Z,100100.61
2019-02-06T05:45:16.917Z,100100.28
2019-02-06T05:47:47.439Z,100103.93
2019-02-06T05:50:18.097Z,100105.67
2019-02-06T05:52:48.631Z,100105.47
2019-02-06T05:55:19.571Z,100094.49
2019-02-06T05:57:50.331Z,100109.42
2019-02-06T06:00:25.619Z,100107.55
2019-02-06T06:02:56.388Z,100112.94
2019-02-06T06:05:27.017Z,100121.13
2019-02-06T06:07:57.588Z,100119.06
2019-02-06T06:10:28.442Z,100127.77
2019-02-06T06:12:58.957Z,100134.95
2019-02-06T06:15:29.728Z,100140.34
2019-02-06T06:18:00.189Z,100144.58
2019-02-06T06:20:30.697Z,100145.11
2019-02-06T06:23:01.358Z,100011.33
2019-02-06T06:25:32.201Z,100143.03
2019-02-06T06:28:02.716Z,100142.50
2019-02-06T06:30:33.267Z,100153.39
2019-02-06T06:33:03.723Z,100137.53
2019-02-06T06:35:34.268Z,100130.70
2019-02-06T06:38:05.089Z,100131.91
2019-02-06T06:40:35.721Z,100000.56
2019-02-06T06:43:06.518Z,100116.79
2019-02-06T06:45:37.139Z,100107.98
2019-02-06T06:48:07.648Z,100114.95
2019-02-06T06:50:38.540Z,100117.55
2019-02-06T06:53:09.467Z,100113.70
2019-02-06T06:55:40.013Z,100112.25
2019-02-06T06:58:10.581Z,100110.17
2019-02-06T07:00:41.082Z,100117.23
2019-02-06T07:03:11.580Z,100134.05
2019-02-06T07:05:42.052Z,100141.51
2019-02-06T07:08:13.477Z,100149.53
2019-02-06T07:10:44.157Z,100160.13
2019-02-06T07:13:14.627Z,100159.16
2019-02-06T07:15:45.502Z,100155.41
2019-02-06T07:18:15.976Z,100148.66
2019-02-06T07:20:46.740Z,100147.02
2019-02-06T07:23:17.230Z,100142.34
2019-02-06T07:25:47.737Z,100150.62
2019-02-06T07:28:20.679Z,100148.91
2019-02-06T07:30:51.223Z,100141.03
2019-02-06T07:33:21.990Z,100143.73
2019-02-06T07:35:52.466Z,100141.62
2019-02-06T07:38:24.556Z,100137.56
2019-02-06T07:40:55.246Z,99901.93
2019-02-06T07:43:25.768Z,100147.44
2019-02-06T07:45:56.246Z,100150.13
2019-02-06T07:48:26.754Z,100148.79
2019-02-06T07:50:57.236Z,100145.36
2019-02-06T07:53:27.762Z,100137.35
2019-02-06T07:55:58.437Z,100135.78
2019-02-06T07:58:29.064Z,100133.81
2019-02-06T08:01:01.081Z,100133.67
2019-02-06T08:03:31.733Z,100125.05
2019-02-06T08:06:03.302Z,100131.73
2019-02-06T08:08:36.003Z,100136.41
2019-02-06T08:11:06.382Z,100149.98
2019-02-06T08:13:36.946Z,100162.41
2019-02-06T08:16:07.622Z,100172.98
2019-02-06T08:18:38.113Z,100172.34
2019-02-06T08:21:08.589Z,100176.46
2019-02-06T08:23:39.103Z,100182.36
2019-02-06T08:26:09.710Z,100179.40
2019-02-06T08:28:40.441Z,100180.02
2019-02-06T08:31:11.090Z,100179.16
2019-02-06T08:33:41.664Z,100186.03
2019-02-06T08:36:12.179Z,100187.12
2019-02-06T08:38:47.581Z,100188.97
2019-02-06T08:41:15.078Z,100212.86
2019-02-06T08:43:45.636Z,100205.19
2019-02-06T08:46:16.202Z,100195.61
2019-02-06T08:48:46.729Z,100201.75
2019-02-06T08:51:17.219Z,100217.41
2019-02-06T08:53:47.709Z,100224.73
2019-02-06T08:56:18.529Z,100219.86
2019-02-06T08:58:49.021Z,100215.26
2019-02-06T09:01:19.605Z,100210.36
2019-02-06T09:03:50.106Z,100217.00
2019-02-06T09:06:20.610Z,100209.48
2019-02-06T09:08:59.241Z,100213.52
2019-02-06T09:11:23.314Z,100221.77
2019-02-06T09:13:53.914Z,100221.14
2019-02-06T09:16:25.225Z,100225.05
2019-02-06T09:18:55.737Z,100123.35
2019-02-06T09:21:27.028Z,100247.02
2019-02-06T09:23:57.554Z,100250.53
2019-02-06T09:26:28.130Z,100259.89
2019-02-06T09:29:01.831Z,100258.13
2019-02-06T09:31:32.297Z,100261.16
2019-02-06T09:34:02.969Z,100267.00
2019-02-06T09:36:33.897Z,100271.36
2019-02-06T09:39:11.586Z,100273.56
2019-02-06T09:41:38.561Z,100280.76
2019-02-06T09:44:09.154Z,100280.94
2019-02-06T09:46:39.674Z,100276.97
2019-02-06T09:49:10.158Z,100286.23
2019-02-06T09:51:40.665Z,100288.84
2019-02-06T09:54:11.142Z,100168.56
2019-02-06T09:56:41.875Z,100284.47
2019-02-06T09:59:12.354Z,100279.06
2019-02-06T10:01:42.868Z,100287.64
2019-02-06T10:04:13.761Z,100290.28
2019-02-06T10:06:44.284Z,100288.64
2019-02-06T10:09:22.668Z,100291.84
2019-02-06T10:11:47.025Z,100172.82
2019-02-06T10:14:17.502Z,100169.39
2019-02-06T10:16:48.021Z,100289.55
2019-02-06T10:19:18.661Z,100291.49
2019-02-06T10:21:52.777Z,100159.20
2019-02-06T10:24:21.648Z,100283.52
2019-02-06T10:26:52.269Z,100271.73
2019-02-06T10:29:23.115Z,100265.34
2019-02-06T10:31:53.772Z,100266.98
2019-02-06T10:34:24.297Z,100265.39
2019-02-06T10:36:54.873Z,100257.77
2019-02-06T10:39:34.298Z,100262.07
2019-02-06T10:41:57.868Z,100266.00
2019-02-06T10:44:28.812Z,100265.72
2019-02-06T10:46:59.451Z,100258.14
2019-02-06T10:49:30.085Z,100259.69
2019-02-06T10:52:00.832Z,100258.09
2019-02-06T10:54:31.463Z,100254.97
2019-02-06T10:57:02.164Z,100257.02
2019-02-06T10:59:34.287Z,100258.21
2019-02-06T11:02:05.125Z,100254.69
2019-02-06T11:04:35.628Z,100258.34
2019-02-06T11:07:08.248Z,100257.27
2019-02-06T11:09:45.950Z,100249.23
2019-02-06T11:12:10.922Z,100257.71
2019-02-06T11:14:41.510Z,100247.67
2019-02-06T11:17:12.011Z,100248.25
2019-02-06T11:19:43.278Z,100246.11
2019-02-06T11:22:13.863Z,100248.34
2019-02-06T11:24:44.319Z,100250.80
2019-02-06T11:27:15.284Z,100252.25
2019-02-06T11:29:48.711Z,100261.72
2019-02-06T11:32:19.338Z,100267.38
2019-02-06T11:34:50.040Z,100266.94
2019-02-06T11:37:20.705Z,100277.27
2019-02-06T11:39:57.952Z,100272.44
2019-02-06T11:42:23.656Z,100272.88
2019-02-06T11:44:54.618Z,100270.87
2019-02-06T11:47:25.233Z,100155.19
2019-02-06T11:49:58.898Z,100273.67
2019-02-06T11:52:29.374Z,100277.08
2019-02-06T11:55:00.064Z,100277.36
2019-02-06T11:57:30.597Z,100286.50
2019-02-06T12:00:01.126Z,100288.72
2019-02-06T12:02:37.528Z,100282.48
2019-02-06T12:05:03.889Z,100276.67
2019-02-06T12:07:34.409Z,100285.26
2019-02-06T12:10:09.959Z,100286.16
2019-02-06T12:12:39.023Z,100285.52
2019-02-06T12:15:13.225Z,100287.04
2019-02-06T12:17:44.076Z,100286.83
2019-02-06T12:20:17.562Z,100288.14
2019-02-06T12:22:48.128Z,100287.28
2019-02-06T12:25:19.367Z,100292.33
2019-02-06T12:27:49.989Z,100283.27
2019-02-06T12:30:23.504Z,100286.99
2019-02-06T12:32:54.094Z,100286.42
2019-02-06T12:35:24.836Z,100280.84
2019-02-06T12:37:55.689Z,100279.98
2019-02-06T12:40:26.517Z,100282.45
2019-02-06T12:42:57.030Z,100281.88
2019-02-06T12:45:27.625Z,100285.27
2019-02-06T12:47:59.017Z,100291.91
2019-02-06T12:50:29.618Z,100287.28
2019-02-06T12:53:00.119Z,100289.05
2019-02-06T12:55:32.594Z,100288.47
2019-02-06T12:58:03.234Z,100281.66
2019-02-06T13:00:35.053Z,100285.31
2019-02-06T13:03:05.724Z,100286.59
2019-02-06T13:05:36.391Z,100170.23
2019-02-06T13:08:07.673Z,100282.65
2019-02-06T13:10:38.637Z,100276.01
2019-02-06T13:13:09.449Z,100277.40
2019-02-06T13:15:40.292Z,100280.14
2019-02-06T13:18:11.120Z,100275.43
2019-02-06T13:20:43.103Z,100269.64
2019-02-06T13:23:13.723Z,100269.52
2019-02-06T13:25:44.283Z,100269.41
2019-02-06T13:28:15.149Z,100269.31
2019-02-06T13:30:45.638Z,100268.27
2019-02-06T13:33:16.260Z,100265.98
2019-02-06T13:35:46.724Z,100263.45
2019-02-06T13:38:17.284Z,100267.27
2019-02-06T13:40:47.925Z,100265.22
2019-02-06T13:43:18.411Z,100265.47
2019-02-06T13:45:49.595Z,100252.19
2019-02-06T13:48:20.045Z,100248.54
2019-02-06T13:50:50.641Z,100246.67
2019-02-06T13:53:21.236Z,100252.52
2019-02-06T13:55:52.380Z,100251.78
2019-02-06T13:58:22.980Z,100254.28
2019-02-06T14:00:53.502Z,100256.58
2019-02-06T14:03:24.046Z,100259.06
2019-02-06T14:05:54.875Z,100262.48
2019-02-06T14:08:25.640Z,100260.92
2019-02-06T14:11:00.512Z,100258.45
2019-02-06T14:13:28.504Z,100257.72
2019-02-06T14:15:59.038Z,100254.81
2019-02-06T14:18:29.493Z,100134.31
2019-02-06T14:21:00.266Z,100264.77
2019-02-06T14:23:38.659Z,100266.47
2019-02-06T14:26:48.765Z,100270.62
2019-02-06T14:30:04.568Z,100278.88
2019-02-06T14:33:04.265Z,100280.67
2019-02-06T14:36:00.170Z,100279.64
2019-02-06T14:38:43.646Z,100282.53
2019-02-06T14:41:37.379Z,100291.37
2019-02-06T14:44:39.758Z,100294.48
2019-02-06T14:47:32.006Z,100297.91
2019-02-06T14:50:43.164Z,100290.76
2019-02-06T14:53:28.872Z,100295.63
2019-02-06T14:56:47.367Z,100301.45
2019-02-06T14:59:40.088Z,100302.36
2019-02-06T15:03:24.567Z,100303.10
2019-02-06T15:06:31.250Z,100307.87
2019-02-06T15:09:54.413Z,100314.31
2019-02-06T15:13:00.979Z,100307.77
2019-02-06T15:16:09.545Z,100298.39
2019-02-06T15:18:52.858Z,100297.48
2019-02-06T15:21:57.980Z,100291.48
2019-02-06T15:25:02.274Z,100292.52
2019-02-06T15:28:09.303Z,100295.52
2019-02-06T15:31:28.426Z,100297.69
2019-02-06T15:34:29.896Z,100301.74
2019-02-06T15:37:53.097Z,100296.97
2019-02-06T15:41:03.810Z,100308.16
2019-02-06T15:44:05.446Z,100302.75
2019-02-06T15:46:48.022Z,100313.97
2019-02-06T15:49:57.705Z,100306.75
2019-02-06T15:53:08.845Z,100312.20
2019-02-06T15:56:14.407Z,100316.94
2019-02-06T15:59:39.816Z,100319.91
2019-02-06T16:02:32.421Z,100328.97
2019-02-06T16:06:06.891Z,100327.48
2019-02-06T16:09:11.565Z,100329.25
2019-02-06T16:12:19.688Z,100333.55
2019-02-06T16:15:22.040Z,100334.56
2019-02-06T16:18:45.245Z,100334.77
2019-02-06T16:21:32.386Z,100346.19
2019-02-06T16:24:18.920Z,100350.66
2019-02-06T16:27:28.729Z,100360.80
2019-02-06T16:30:35.362Z,100356.66
2019-02-06T16:33:41.735Z,100359.55
2019-02-06T16:37:03.687Z,100367.55
2019-02-06T16:40:18.477Z,100372.25
2019-02-06T16:43:14.032Z,100367.52
2019-02-06T16:46:24.254Z,100378.35
2019-02-06T16:49:02.443Z,100377.20
2019-02-06T16:51:49.553Z,100376.58
2019-02-06T16:55:09.643Z,100386.28
2019-02-06T16:57:57.327Z,100388.88
2019-02-06T17:00:54.425Z,100394.73
2019-02-06T17:04:04.302Z,100394.11
2019-02-06T17:07:01.843Z,100393.42
2019-02-06T17:10:18.885Z,100391.68
2019-02-06T17:13:23.104Z,100394.62
2019-02-06T17:16:45.155Z,100396.42
2019-02-06T17:19:59.226Z,100401.94
2019-02-06T17:23:10.815Z,100403.05
2019-02-06T17:26:04.307Z,100415.20
2019-02-06T17:28:46.600Z,100415.12
2019-02-06T17:31:46.821Z,100416.05
2019-02-06T17:34:47.234Z,100414.80
2019-02-06T17:38:03.345Z,100418.55
2019-02-06T17:41:02.768Z,100418.86
2019-02-06T17:44:12.669Z,100426.38
2019-02-06T17:47:33.182Z,100422.52
2019-02-06T17:50:42.517Z,100423.87
2019-02-06T17:53:28.244Z,100297.02
2019-02-06T17:55:58.758Z,100424.57
2019-02-06T17:58:33.303Z,100428.64
2019-02-06T18:01:29.219Z,100434.67
2019-02-06T18:04:08.568Z,100432.27
2019-02-06T18:06:39.164Z,100431.14
2019-02-06T18:09:15.453Z,100433.31
2019-02-06T18:11:47.186Z,100433.62
2019-02-06T18:14:17.792Z,100434.63
2019-02-06T18:16:48.354Z,100432.77
2019-02-06T18:19:18.854Z,100432.97
2019-02-06T18:21:49.316Z,100434.31
2019-02-06T18:24:19.932Z,100436.48
2019-02-06T18:26:50.647Z,100440.87
2019-02-06T18:29:21.159Z,100440.87
2019-02-06T18:31:51.824Z,100442.61
2019-02-06T18:34:22.328Z,100453.45
2019-02-06T18:36:52.946Z,100451.45
2019-02-06T18:39:23.455Z,100452.38
2019-02-06T18:41:53.930Z,100450.58
2019-02-06T18:44:25.200Z,100458.06
2019-02-06T18:46:57.925Z,100461.50
2019-02-06T18:49:28.490Z,100453.83
2019-02-06T18:51:59.192Z,100469.00
2019-02-06T18:54:30.165Z,100466.08
2019-02-06T18:57:00.829Z,100474.81
2019-02-06T18:59:31.417Z,100476.16
2019-02-06T19:02:02.039Z,100469.58
2019-02-06T19:04:32.669Z,100479.00
2019-02-06T19:07:03.390Z,100476.11
2019-02-06T19:09:34.086Z,100483.05
2019-02-06T19:12:04.732Z,100485.56
2019-02-06T19:14:35.212Z,100484.32
2019-02-06T19:17:06.022Z,100479.63
2019-02-06T19:19:36.517Z,100488.06
2019-02-06T19:22:07.394Z,100478.09
2019-02-06T19:24:37.915Z,100478.67
2019-02-06T19:27:08.660Z,100481.70
2019-02-06T19:29:39.160Z,100488.50
2019-02-06T19:32:09.630Z,100485.80
2019-02-06T19:34:40.134Z,100491.83
2019-02-06T19:37:10.587Z,100497.56
2019-02-06T19:39:41.106Z,100498.28
2019-02-06T19:42:11.856Z,100495.73
2019-02-06T19:44:42.319Z,100498.73
2019-02-06T19:47:12.839Z,100503.53
2019-02-06T19:49:43.305Z,100416.37
2019-02-06T19:52:13.984Z,100500.42
2019-02-06T19:54:46.228Z,100508.27
2019-02-06T19:57:16.641Z,100510.25
2019-02-06T19:59:47.283Z,100515.45
2019-02-06T20:02:17.837Z,100518.75
2019-02-06T20:04:48.436Z,100525.05
2019-02-06T20:07:18.946Z,100520.81
2019-02-06T20:09:49.455Z,100526.84
2019-02-06T20:12:20.081Z,100527.30
2019-02-06T20:14:50.552Z,100535.02
2019-02-06T20:17:21.167Z,100539.37
2019-02-06T20:19:51.692Z,100536.63
2019-02-06T20:22:22.150Z,100542.22
2019-02-06T20:24:52.715Z,100546.74
2019-02-06T20:27:23.216Z,100547.22
2019-02-06T20:29:53.841Z,100546.84
2019-02-06T20:32:24.631Z,100541.70
2019-02-06T20:34:55.145Z,100533.75
2019-02-06T20:37:25.629Z,100540.75
2019-02-06T20:39:56.102Z,100538.58
2019-02-06T20:42:26.603Z,100542.36
2019-02-06T20:44:57.320Z,100535.31
2019-02-06T20:47:27.770Z,100535.89
2019-02-06T20:49:58.276Z,100541.81
2019-02-06T20:52:28.726Z,100540.40
2019-02-06T20:54:59.231Z,100534.63
2019-02-06T20:57:29.689Z,100537.07
2019-02-06T21:00:00.433Z,100534.16
2019-02-06T21:02:30.898Z,100533.59
2019-02-06T21:05:01.361Z,100533.70
2019-02-06T21:07:31.878Z,100538.17
2019-02-06T21:10:02.349Z,100530.89
2019-02-06T21:12:32.859Z,100528.31
2019-02-06T21:15:03.424Z,100532.66
2019-02-06T21:17:33.929Z,100532.32
2019-02-06T21:20:04.921Z,100534.31
2019-02-06T21:22:35.384Z,100534.23
2019-02-06T21:25:09.503Z,100531.61
2019-02-06T21:27:38.963Z,100528.20
2019-02-06T21:30:20.961Z,100530.70
2019-02-06T21:32:51.449Z,100523.33
2019-02-06T21:35:22.021Z,100529.14
2019-02-06T21:37:52.739Z,100528.83
2019-02-06T21:40:25.140Z,100531.91
2019-02-06T21:42:55.790Z,100527.03
2019-02-06T21:45:26.248Z,100531.91
2019-02-06T21:47:56.847Z,100537.53
2019-02-06T21:50:27.506Z,100538.66
2019-02-06T21:52:58.375Z,100536.48
2019-02-06T21:55:29.046Z,100535.40
2019-02-06T21:57:59.560Z,100538.09
2019-02-06T22:00:40.799Z,100541.65
2019-02-06T22:03:12.084Z,100542.28
2019-02-06T22:05:42.738Z,100542.66
2019-02-06T22:08:13.242Z,100544.73
2019-02-06T22:10:43.692Z,100549.03
2019-02-06T22:13:14.216Z,100539.02
2019-02-06T22:15:44.679Z,100550.72
2019-02-06T22:18:15.134Z,100542.92
2019-02-06T22:20:45.731Z,100541.27
2019-02-06T22:23:16.183Z,100541.53
2019-02-06T22:25:46.778Z,100540.07
2019-02-06T22:28:17.261Z,100539.77
2019-02-06T22:30:48.031Z,100539.77
2019-02-06T22:33:18.579Z,100536.02
2019-02-06T22:35:49.324Z,100533.09
2019-02-06T22:38:19.773Z,100525.95
2019-02-06T22:40:50.275Z,100520.36
2019-02-06T22:43:20.727Z,100516.50
2019-02-06T22:45:51.186Z,100515.04
2019-02-06T22:48:21.687Z,100510.47
2019-02-06T22:50:52.128Z,100507.42
2019-02-06T22:53:22.694Z,100505.93
2019-02-06T22:55:53.177Z,100500.52
2019-02-06T22:58:23.713Z,100503.69
2019-02-06T23:01:06.233Z,100504.05
2019-02-06T23:03:46.985Z,100496.22
2019-02-06T23:06:17.535Z,100491.73
2019-02-06T23:08:48.198Z,100489.33
2019-02-06T23:11:18.802Z,100485.12
2019-02-06T23:13:49.361Z,100486.92
2019-02-06T23:16:19.965Z,100484.71
2019-02-06T23:18:52.176Z,100484.36
2019-02-06T23:21:22.783Z,100484.16
2019-02-06T23:23:53.289Z,100475.84
2019-02-06T23:26:23.764Z,100478.97
2019-02-06T23:28:54.226Z,100473.22
2019-02-06T23:31:24.833Z,100472.66
2019-02-06T23:33:55.556Z,100482.19
2019-02-06T23:36:26.049Z,100478.72
2019-02-06T23:38:56.518Z,100485.96
2019-02-06T23:41:27.039Z,100487.17
2019-02-06T23:44:28.299Z,100481.37
2019-02-06T23:46:50.223Z,100485.96
2019-02-06T23:49:20.694Z,100490.78
2019-02-06T23:51:51.201Z,100488.91
2019-02-06T23:54:21.669Z,100491.88
2019-02-06T23:56:52.547Z,100496.03
2019-02-06T23:59:23.017Z,100502.34
